sensor_id;sensor_type;location;lat;lon;timestamp;P1;durP1;ratioP1;P2;durP2;ratioP2
58874;SDS011;44652;49.040;12.126;2022-10-19T00:02:08;16.85;;;13.35;;
58874;SDS011;44652;49.040;12.126;2022-10-19T00:04:34;28.27;;;15.65;;
58874;SDS011;44652;49.040;12.126;2022-10-19T00:07:04;37.67;;;17.13;;
58874;SDS011;44652;49.040;12.126;2022-10-19T00:09:31;33.17;;;15.93;;
58874;SDS011;44652;49.040;12.126;2022-10-19T00:11:57;56.83;;;18.83;;
58874;SDS011;44652;49.040;12.126;2022-10-19T00:14:24;31.88;;;16.75;;
58874;SDS011;44652;49.040;12.126;2022-10-19T00:16:51;26.33;;;16.05;;
58874;SDS011;44652;49.040;12.126;2022-10-19T00:19:19;27.60;;;17.20;;
58874;SDS011;44652;49.040;12.126;2022-10-19T00:24:13;21.30;;;15.50;;
58874;SDS011;44652;49.040;12.126;2022-10-19T00:26:39;58.40;;;17.20;;
58874;SDS011;44652;49.040;12.126;2022-10-19T00:29:08;35.53;;;16.38;;
58874;SDS011;44652;49.040;12.126;2022-10-19T00:31:35;45.95;;;15.77;;
58874;SDS011;44652;49.040;12.126;2022-10-19T00:34:02;23.95;;;14.48;;
58874;SDS011;44652;49.040;12.126;2022-10-19T00:36:33;27.38;;;15.60;;
58874;SDS011;44652;49.040;12.126;2022-10-19T00:39:00;21.15;;;14.52;;
58874;SDS011;44652;49.040;12.126;2022-10-19T00:41:28;17.20;;;14.55;;
58874;SDS011;44652;49.040;12.126;2022-10-19T00:44:00;35.70;;;14.93;;
58874;SDS011;44652;49.040;12.126;2022-10-19T00:46:27;20.83;;;14.88;;
58874;SDS011;44652;49.040;12.126;2022-10-19T00:49:05;20.50;;;13.50;;
58874;SDS011;44652;49.040;12.126;2022-10-19T00:51:37;17.20;;;11.25;;
58874;SDS011;44652;49.040;12.126;2022-10-19T00:56:31;14.43;;;11.02;;
58874;SDS011;44652;49.040;12.126;2022-10-19T00:58:57;13.07;;;9.88;;
58874;SDS011;44652;49.040;12.126;2022-10-19T01:01:24;12.88;;;10.60;;
58874;SDS011;44652;49.040;12.126;2022-10-19T01:03:52;12.23;;;10.27;;
58874;SDS011;44652;49.040;12.126;2022-10-19T01:06:19;12.27;;;9.82;;
58874;SDS011;44652;49.040;12.126;2022-10-19T01:08:45;11.32;;;10.13;;
58874;SDS011;44652;49.040;12.126;2022-10-19T01:11:35;11.55;;;9.88;;
58874;SDS011;44652;49.040;12.126;2022-10-19T01:14:26;13.35;;;10.13;;
58874;SDS011;44652;49.040;12.126;2022-10-19T01:33:14;12.48;;;10.40;;
58874;SDS011;44652;49.040;12.126;2022-10-19T01:35:50;13.88;;;11.48;;
58874;SDS011;44652;49.040;12.126;2022-10-19T01:38:23;11.75;;;10.52;;
58874;SDS011;44652;49.040;12.126;2022-10-19T01:40:55;12.68;;;10.82;;
58874;SDS011;44652;49.040;12.126;2022-10-19T01:46:01;11.77;;;10.07;;
58874;SDS011;44652;49.040;12.126;2022-10-19T01:48:32;13.27;;;10.27;;
58874;SDS011;44652;49.040;12.126;2022-10-19T01:51:18;12.20;;;10.10;;
58874;SDS011;44652;49.040;12.126;2022-10-19T01:53:46;12.45;;;9.85;;
58874;SDS011;44652;49.040;12.126;2022-10-19T01:58:40;14.95;;;11.35;;
58874;SDS011;44652;49.040;12.126;2022-10-19T02:01:09;28.98;;;13.23;;
58874;SDS011;44652;49.040;12.126;2022-10-19T02:03:41;13.25;;;11.23;;
58874;SDS011;44652;49.040;12.126;2022-10-19T02:06:08;20.00;;;11.93;;
58874;SDS011;44652;49.040;12.126;2022-10-19T02:08:38;20.25;;;12.80;;
58874;SDS011;44652;49.040;12.126;2022-10-19T02:11:05;25.98;;;12.68;;
58874;SDS011;44652;49.040;12.126;2022-10-19T02:13:32;36.92;;;14.15;;
58874;SDS011;44652;49.040;12.126;2022-10-19T02:16:00;25.75;;;13.25;;
58874;SDS011;44652;49.040;12.126;2022-10-19T02:18:31;17.10;;;11.40;;
58874;SDS011;44652;49.040;12.126;2022-10-19T02:20:59;28.50;;;12.02;;
58874;SDS011;44652;49.040;12.126;2022-10-19T02:23:26;22.05;;;12.63;;
58874;SDS011;44652;49.040;12.126;2022-10-19T02:25:53;14.60;;;11.77;;
58874;SDS011;44652;49.040;12.126;2022-10-19T02:28:25;20.95;;;13.40;;
58874;SDS011;44652;49.040;12.126;2022-10-19T02:30:52;21.73;;;13.48;;
58874;SDS011;44652;49.040;12.126;2022-10-19T02:33:19;24.67;;;13.75;;
58874;SDS011;44652;49.040;12.126;2022-10-19T02:35:45;21.92;;;13.02;;
58874;SDS011;44652;49.040;12.126;2022-10-19T02:38:15;32.88;;;14.73;;
58874;SDS011;44652;49.040;12.126;2022-10-19T02:40:44;15.52;;;11.80;;
58874;SDS011;44652;49.040;12.126;2022-10-19T02:43:13;51.60;;;13.65;;
58874;SDS011;44652;49.040;12.126;2022-10-19T02:45:45;21.00;;;13.35;;
58874;SDS011;44652;49.040;12.126;2022-10-19T02:48:17;17.85;;;13.15;;
58874;SDS011;44652;49.040;12.126;2022-10-19T02:50:44;22.75;;;14.35;;
58874;SDS011;44652;49.040;12.126;2022-10-19T02:53:13;19.38;;;13.82;;
58874;SDS011;44652;49.040;12.126;2022-10-19T02:55:40;24.70;;;14.68;;
58874;SDS011;44652;49.040;12.126;2022-10-19T02:58:07;49.03;;;14.85;;
58874;SDS011;44652;49.040;12.126;2022-10-19T03:00:33;22.83;;;14.98;;
58874;SDS011;44652;49.040;12.126;2022-10-19T03:03:00;21.00;;;14.45;;
58874;SDS011;44652;49.040;12.126;2022-10-19T03:05:28;23.65;;;15.82;;
58874;SDS011;44652;49.040;12.126;2022-10-19T03:07:55;16.75;;;13.98;;
58874;SDS011;44652;49.040;12.126;2022-10-19T03:10:21;40.70;;;15.43;;
58874;SDS011;44652;49.040;12.126;2022-10-19T03:12:48;31.27;;;15.93;;
58874;SDS011;44652;49.040;12.126;2022-10-19T03:15:15;21.70;;;15.30;;
58874;SDS011;44652;49.040;12.126;2022-10-19T03:17:42;26.92;;;15.95;;
58874;SDS011;44652;49.040;12.126;2022-10-19T03:20:09;17.58;;;13.43;;
58874;SDS011;44652;49.040;12.126;2022-10-19T03:22:35;19.33;;;14.57;;
58874;SDS011;44652;49.040;12.126;2022-10-19T03:25:02;26.83;;;16.60;;
58874;SDS011;44652;49.040;12.126;2022-10-19T03:27:28;20.38;;;16.35;;
58874;SDS011;44652;49.040;12.126;2022-10-19T03:29:55;20.05;;;16.25;;
58874;SDS011;44652;49.040;12.126;2022-10-19T03:32:21;17.40;;;14.50;;
58874;SDS011;44652;49.040;12.126;2022-10-19T03:34:48;18.75;;;16.05;;
58874;SDS011;44652;49.040;12.126;2022-10-19T03:37:14;18.02;;;14.93;;
58874;SDS011;44652;49.040;12.126;2022-10-19T03:39:41;22.67;;;16.05;;
58874;SDS011;44652;49.040;12.126;2022-10-19T03:42:07;18.83;;;14.90;;
58874;SDS011;44652;49.040;12.126;2022-10-19T03:44:34;19.83;;;14.68;;
58874;SDS011;44652;49.040;12.126;2022-10-19T03:47:00;16.13;;;12.70;;
58874;SDS011;44652;49.040;12.126;2022-10-19T03:49:27;20.08;;;12.68;;
58874;SDS011;44652;49.040;12.126;2022-10-19T03:51:53;31.25;;;13.55;;
58874;SDS011;44652;49.040;12.126;2022-10-19T03:54:20;15.00;;;11.32;;
58874;SDS011;44652;49.040;12.126;2022-10-19T03:56:52;16.17;;;11.85;;
58874;SDS011;44652;49.040;12.126;2022-10-19T03:59:18;21.50;;;12.20;;
58874;SDS011;44652;49.040;12.126;2022-10-19T04:01:46;20.48;;;12.55;;
58874;SDS011;44652;49.040;12.126;2022-10-19T04:04:14;20.42;;;13.38;;
58874;SDS011;44652;49.040;12.126;2022-10-19T04:09:07;21.80;;;13.43;;
58874;SDS011;44652;49.040;12.126;2022-10-19T04:11:34;22.60;;;12.38;;
58874;SDS011;44652;49.040;12.126;2022-10-19T04:14:01;18.63;;;12.13;;
58874;SDS011;44652;49.040;12.126;2022-10-19T04:16:28;23.20;;;11.23;;
58874;SDS011;44652;49.040;12.126;2022-10-19T04:18:56;15.95;;;12.48;;
58874;SDS011;44652;49.040;12.126;2022-10-19T04:23:53;18.38;;;13.25;;
58874;SDS011;44652;49.040;12.126;2022-10-19T04:26:19;20.25;;;13.80;;
58874;SDS011;44652;49.040;12.126;2022-10-19T04:28:46;15.00;;;11.63;;
58874;SDS011;44652;49.040;12.126;2022-10-19T04:31:12;17.42;;;11.82;;
58874;SDS011;44652;49.040;12.126;2022-10-19T04:33:39;19.90;;;14.13;;
58874;SDS011;44652;49.040;12.126;2022-10-19T04:36:07;20.30;;;14.15;;
58874;SDS011;44652;49.040;12.126;2022-10-19T04:38:34;39.63;;;16.23;;
58874;SDS011;44652;49.040;12.126;2022-10-19T04:41:01;27.75;;;15.60;;
58874;SDS011;44652;49.040;12.126;2022-10-19T04:43:28;22.92;;;14.55;;
58874;SDS011;44652;49.040;12.126;2022-10-19T04:45:55;21.38;;;14.68;;
58874;SDS011;44652;49.040;12.126;2022-10-19T04:48:21;27.23;;;15.93;;
58874;SDS011;44652;49.040;12.126;2022-10-19T04:50:48;22.65;;;13.90;;
58874;SDS011;44652;49.040;12.126;2022-10-19T04:53:18;25.58;;;14.20;;
58874;SDS011;44652;49.040;12.126;2022-10-19T04:55:45;55.22;;;15.85;;
58874;SDS011;44652;49.040;12.126;2022-10-19T04:58:11;24.45;;;14.77;;
58874;SDS011;44652;49.040;12.126;2022-10-19T05:00:38;23.65;;;14.45;;
58874;SDS011;44652;49.040;12.126;2022-10-19T05:03:04;23.13;;;14.43;;
58874;SDS011;44652;49.040;12.126;2022-10-19T05:05:31;28.33;;;15.40;;
58874;SDS011;44652;49.040;12.126;2022-10-19T05:07:58;28.10;;;16.42;;
58874;SDS011;44652;49.040;12.126;2022-10-19T05:10:27;33.55;;;16.58;;
58874;SDS011;44652;49.040;12.126;2022-10-19T05:12:54;24.05;;;15.70;;
58874;SDS011;44652;49.040;12.126;2022-10-19T05:15:20;96.38;;;16.27;;
58874;SDS011;44652;49.040;12.126;2022-10-19T05:17:47;27.27;;;14.48;;
58874;SDS011;44652;49.040;12.126;2022-10-19T05:20:13;25.40;;;14.07;;
58874;SDS011;44652;49.040;12.126;2022-10-19T05:22:40;21.45;;;13.95;;
58874;SDS011;44652;49.040;12.126;2022-10-19T05:25:07;36.67;;;15.05;;
58874;SDS011;44652;49.040;12.126;2022-10-19T05:27:33;29.63;;;15.40;;
58874;SDS011;44652;49.040;12.126;2022-10-19T05:30:00;20.75;;;13.75;;
58874;SDS011;44652;49.040;12.126;2022-10-19T05:32:27;17.05;;;13.55;;
58874;SDS011;44652;49.040;12.126;2022-10-19T05:34:53;21.65;;;12.95;;
58874;SDS011;44652;49.040;12.126;2022-10-19T05:37:20;16.15;;;11.55;;
58874;SDS011;44652;49.040;12.126;2022-10-19T05:39:47;23.60;;;13.32;;
58874;SDS011;44652;49.040;12.126;2022-10-19T05:42:13;20.65;;;13.52;;
58874;SDS011;44652;49.040;12.126;2022-10-19T05:44:40;41.45;;;13.88;;
58874;SDS011;44652;49.040;12.126;2022-10-19T05:47:06;20.60;;;12.48;;
58874;SDS011;44652;49.040;12.126;2022-10-19T05:49:33;16.17;;;11.27;;
58874;SDS011;44652;49.040;12.126;2022-10-19T05:51:59;22.40;;;13.40;;
58874;SDS011;44652;49.040;12.126;2022-10-19T05:54:26;19.00;;;11.32;;
58874;SDS011;44652;49.040;12.126;2022-10-19T05:56:54;18.77;;;11.30;;
58874;SDS011;44652;49.040;12.126;2022-10-19T05:59:21;17.63;;;11.05;;
58874;SDS011;44652;49.040;12.126;2022-10-19T06:01:47;13.88;;;10.15;;
58874;SDS011;44652;49.040;12.126;2022-10-19T06:04:14;18.60;;;10.65;;
58874;SDS011;44652;49.040;12.126;2022-10-19T06:06:45;16.50;;;10.38;;
58874;SDS011;44652;49.040;12.126;2022-10-19T06:09:12;26.08;;;10.73;;
58874;SDS011;44652;49.040;12.126;2022-10-19T06:11:39;20.02;;;10.43;;
58874;SDS011;44652;49.040;12.126;2022-10-19T06:14:08;16.25;;;9.18;;
58874;SDS011;44652;49.040;12.126;2022-10-19T06:16:36;13.95;;;9.65;;
58874;SDS011;44652;49.040;12.126;2022-10-19T06:19:03;16.45;;;9.05;;
58874;SDS011;44652;49.040;12.126;2022-10-19T06:21:30;12.88;;;9.38;;
58874;SDS011;44652;49.040;12.126;2022-10-19T06:23:58;12.13;;;7.72;;
58874;SDS011;44652;49.040;12.126;2022-10-19T06:26:25;14.88;;;7.80;;
58874;SDS011;44652;49.040;12.126;2022-10-19T06:28:56;11.88;;;7.55;;
58874;SDS011;44652;49.040;12.126;2022-10-19T06:31:28;10.93;;;5.90;;
58874;SDS011;44652;49.040;12.126;2022-10-19T06:33:56;7.35;;;5.00;;
58874;SDS011;44652;49.040;12.126;2022-10-19T06:36:23;8.85;;;5.80;;
58874;SDS011;44652;49.040;12.126;2022-10-19T06:38:50;8.68;;;5.70;;
58874;SDS011;44652;49.040;12.126;2022-10-19T06:41:18;10.15;;;5.70;;
58874;SDS011;44652;49.040;12.126;2022-10-19T06:43:51;8.15;;;5.75;;
58874;SDS011;44652;49.040;12.126;2022-10-19T06:46:18;8.70;;;5.47;;
58874;SDS011;44652;49.040;12.126;2022-10-19T06:48:56;8.40;;;5.80;;
58874;SDS011;44652;49.040;12.126;2022-10-19T06:51:23;7.20;;;5.00;;
58874;SDS011;44652;49.040;12.126;2022-10-19T06:53:50;8.75;;;5.53;;
58874;SDS011;44652;49.040;12.126;2022-10-19T06:56:22;10.10;;;5.78;;
58874;SDS011;44652;49.040;12.126;2022-10-19T06:58:50;9.30;;;5.95;;
58874;SDS011;44652;49.040;12.126;2022-10-19T07:01:16;8.80;;;5.97;;
58874;SDS011;44652;49.040;12.126;2022-10-19T07:03:43;8.23;;;6.28;;
58874;SDS011;44652;49.040;12.126;2022-10-19T07:06:10;11.45;;;6.55;;
58874;SDS011;44652;49.040;12.126;2022-10-19T07:08:38;8.93;;;5.53;;
58874;SDS011;44652;49.040;12.126;2022-10-19T07:11:06;10.23;;;5.53;;
58874;SDS011;44652;49.040;12.126;2022-10-19T07:13:32;7.85;;;5.07;;
58874;SDS011;44652;49.040;12.126;2022-10-19T07:16:03;7.47;;;5.75;;
58874;SDS011;44652;49.040;12.126;2022-10-19T07:18:34;7.93;;;5.55;;
58874;SDS011;44652;49.040;12.126;2022-10-19T07:21:02;9.48;;;6.15;;
58874;SDS011;44652;49.040;12.126;2022-10-19T07:23:30;8.67;;;5.23;;
58874;SDS011;44652;49.040;12.126;2022-10-19T07:25:57;11.47;;;5.70;;
58874;SDS011;44652;49.040;12.126;2022-10-19T07:28:27;7.07;;;4.72;;
58874;SDS011;44652;49.040;12.126;2022-10-19T07:30:54;7.32;;;5.47;;
58874;SDS011;44652;49.040;12.126;2022-10-19T07:33:21;10.15;;;5.70;;
58874;SDS011;44652;49.040;12.126;2022-10-19T07:35:48;7.97;;;5.57;;
58874;SDS011;44652;49.040;12.126;2022-10-19T07:38:14;6.60;;;5.32;;
58874;SDS011;44652;49.040;12.126;2022-10-19T07:40:41;7.28;;;5.38;;
58874;SDS011;44652;49.040;12.126;2022-10-19T07:43:12;9.05;;;5.13;;
58874;SDS011;44652;49.040;12.126;2022-10-19T07:45:39;7.15;;;5.00;;
58874;SDS011;44652;49.040;12.126;2022-10-19T07:48:05;5.97;;;4.97;;
58874;SDS011;44652;49.040;12.126;2022-10-19T07:50:32;6.25;;;5.03;;
58874;SDS011;44652;49.040;12.126;2022-10-19T07:52:58;6.25;;;4.47;;
58874;SDS011;44652;49.040;12.126;2022-10-19T07:55:25;6.20;;;4.43;;
58874;SDS011;44652;49.040;12.126;2022-10-19T07:57:51;6.78;;;5.07;;
58874;SDS011;44652;49.040;12.126;2022-10-19T08:00:18;7.97;;;5.65;;
58874;SDS011;44652;49.040;12.126;2022-10-19T08:02:44;7.03;;;5.43;;
58874;SDS011;44652;49.040;12.126;2022-10-19T08:05:31;9.25;;;5.45;;
58874;SDS011;44652;49.040;12.126;2022-10-19T08:07:58;6.95;;;5.38;;
58874;SDS011;44652;49.040;12.126;2022-10-19T08:10:24;6.82;;;4.78;;
58874;SDS011;44652;49.040;12.126;2022-10-19T08:12:51;7.72;;;5.35;;
58874;SDS011;44652;49.040;12.126;2022-10-19T08:15:17;7.07;;;5.65;;
58874;SDS011;44652;49.040;12.126;2022-10-19T08:17:44;8.23;;;6.20;;
58874;SDS011;44652;49.040;12.126;2022-10-19T08:20:10;7.55;;;5.90;;
58874;SDS011;44652;49.040;12.126;2022-10-19T08:22:37;8.00;;;6.28;;
58874;SDS011;44652;49.040;12.126;2022-10-19T08:25:03;8.82;;;5.88;;
58874;SDS011;44652;49.040;12.126;2022-10-19T08:27:30;6.40;;;5.13;;
58874;SDS011;44652;49.040;12.126;2022-10-19T08:29:56;8.32;;;6.68;;
58874;SDS011;44652;49.040;12.126;2022-10-19T08:32:23;8.60;;;6.65;;
58874;SDS011;44652;49.040;12.126;2022-10-19T08:34:49;7.95;;;7.00;;
58874;SDS011;44652;49.040;12.126;2022-10-19T08:37:16;8.80;;;7.18;;
58874;SDS011;44652;49.040;12.126;2022-10-19T08:40:03;10.30;;;7.50;;
58874;SDS011;44652;49.040;12.126;2022-10-19T08:42:53;9.88;;;7.57;;
58874;SDS011;44652;49.040;12.126;2022-10-19T08:45:30;9.30;;;7.47;;
58874;SDS011;44652;49.040;12.126;2022-10-19T08:53:04;10.43;;;8.48;;
58874;SDS011;44652;49.040;12.126;2022-10-19T08:55:43;10.80;;;7.95;;
58874;SDS011;44652;49.040;12.126;2022-10-19T08:58:19;12.60;;;9.00;;
58874;SDS011;44652;49.040;12.126;2022-10-19T09:00:52;9.73;;;8.40;;
58874;SDS011;44652;49.040;12.126;2022-10-19T09:03:29;10.50;;;8.63;;
58874;SDS011;44652;49.040;12.126;2022-10-19T09:06:23;11.68;;;8.95;;
58874;SDS011;44652;49.040;12.126;2022-10-19T09:08:52;12.57;;;9.00;;
58874;SDS011;44652;49.040;12.126;2022-10-19T09:11:22;10.98;;;8.75;;
58874;SDS011;44652;49.040;12.126;2022-10-19T09:13:54;11.25;;;9.40;;
58874;SDS011;44652;49.040;12.126;2022-10-19T09:16:31;12.75;;;8.27;;
58874;SDS011;44652;49.040;12.126;2022-10-19T09:18:58;10.98;;;9.30;;
58874;SDS011;44652;49.040;12.126;2022-10-19T09:21:29;8.73;;;7.80;;
58874;SDS011;44652;49.040;12.126;2022-10-19T09:24:57;10.02;;;8.10;;
58874;SDS011;44652;49.040;12.126;2022-10-19T09:27:02;7.82;;;7.03;;
58874;SDS011;44652;49.040;12.126;2022-10-19T09:29:43;9.35;;;7.00;;
58874;SDS011;44652;49.040;12.126;2022-10-19T09:32:11;7.05;;;5.88;;
58874;SDS011;44652;49.040;12.126;2022-10-19T09:34:43;7.28;;;5.95;;
58874;SDS011;44652;49.040;12.126;2022-10-19T09:37:11;7.22;;;5.43;;
58874;SDS011;44652;49.040;12.126;2022-10-19T09:39:48;10.43;;;5.53;;
58874;SDS011;44652;49.040;12.126;2022-10-19T09:42:21;9.02;;;5.78;;
58874;SDS011;44652;49.040;12.126;2022-10-19T09:44:49;7.65;;;5.63;;
58874;SDS011;44652;49.040;12.126;2022-10-19T09:47:20;8.05;;;4.97;;
58874;SDS011;44652;49.040;12.126;2022-10-19T09:49:48;8.50;;;5.20;;
58874;SDS011;44652;49.040;12.126;2022-10-19T09:54:58;7.35;;;5.95;;
58874;SDS011;44652;49.040;12.126;2022-10-19T09:57:25;8.80;;;4.93;;
58874;SDS011;44652;49.040;12.126;2022-10-19T09:59:52;7.28;;;4.78;;
58874;SDS011;44652;49.040;12.126;2022-10-19T10:02:19;10.48;;;4.97;;
58874;SDS011;44652;49.040;12.126;2022-10-19T10:04:53;9.43;;;5.00;;
58874;SDS011;44652;49.040;12.126;2022-10-19T10:07:21;8.75;;;5.00;;
58874;SDS011;44652;49.040;12.126;2022-10-19T10:09:51;7.13;;;4.78;;
58874;SDS011;44652;49.040;12.126;2022-10-19T10:12:17;7.57;;;4.90;;
58874;SDS011;44652;49.040;12.126;2022-10-19T10:14:44;8.48;;;5.30;;
58874;SDS011;44652;49.040;12.126;2022-10-19T10:17:20;7.75;;;4.82;;
58874;SDS011;44652;49.040;12.126;2022-10-19T10:22:42;7.80;;;5.63;;
58874;SDS011;44652;49.040;12.126;2022-10-19T10:25:17;8.10;;;6.05;;
58874;SDS011;44652;49.040;12.126;2022-10-19T10:27:52;7.40;;;5.30;;
58874;SDS011;44652;49.040;12.126;2022-10-19T10:30:19;6.82;;;4.50;;
58874;SDS011;44652;49.040;12.126;2022-10-19T10:32:49;6.63;;;4.32;;
58874;SDS011;44652;49.040;12.126;2022-10-19T10:35:37;5.00;;;3.88;;
58874;SDS011;44652;49.040;12.126;2022-10-19T10:40:39;5.35;;;3.88;;
58874;SDS011;44652;49.040;12.126;2022-10-19T10:43:07;5.65;;;4.00;;
58874;SDS011;44652;49.040;12.126;2022-10-19T10:48:09;5.60;;;3.95;;
58874;SDS011;44652;49.040;12.126;2022-10-19T10:50:37;5.55;;;4.30;;
58874;SDS011;44652;49.040;12.126;2022-10-19T10:53:04;5.78;;;4.60;;
58874;SDS011;44652;49.040;12.126;2022-10-19T10:55:32;6.03;;;4.75;;
58874;SDS011;44652;49.040;12.126;2022-10-19T10:58:08;6.10;;;4.45;;
58874;SDS011;44652;49.040;12.126;2022-10-19T11:00:38;6.75;;;4.70;;
58874;SDS011;44652;49.040;12.126;2022-10-19T11:03:22;6.07;;;4.15;;
58874;SDS011;44652;49.040;12.126;2022-10-19T11:05:52;6.43;;;4.13;;
58874;SDS011;44652;49.040;12.126;2022-10-19T11:10:54;8.30;;;5.18;;
58874;SDS011;44652;49.040;12.126;2022-10-19T11:16:11;7.68;;;5.20;;
58874;SDS011;44652;49.040;12.126;2022-10-19T11:21:10;6.75;;;4.70;;
58874;SDS011;44652;49.040;12.126;2022-10-19T11:42:11;8.20;;;5.30;;
58874;SDS011;44652;49.040;12.126;2022-10-19T11:52:21;8.85;;;6.15;;
58874;SDS011;44652;49.040;12.126;2022-10-19T11:57:20;6.80;;;5.20;;
58874;SDS011;44652;49.040;12.126;2022-10-19T11:59:55;7.20;;;4.93;;
58874;SDS011;44652;49.040;12.126;2022-10-19T12:05:09;7.03;;;5.20;;
58874;SDS011;44652;49.040;12.126;2022-10-19T12:10:27;8.15;;;5.47;;
58874;SDS011;44652;49.040;12.126;2022-10-19T12:13:08;8.70;;;4.97;;
58874;SDS011;44652;49.040;12.126;2022-10-19T12:15:43;7.72;;;4.40;;
58874;SDS011;44652;49.040;12.126;2022-10-19T12:20:57;7.82;;;4.07;;
58874;SDS011;44652;49.040;12.126;2022-10-19T12:23:37;7.00;;;4.38;;
58874;SDS011;44652;49.040;12.126;2022-10-19T12:26:07;5.97;;;4.03;;
58874;SDS011;44652;49.040;12.126;2022-10-19T12:28:39;5.78;;;4.10;;
58874;SDS011;44652;49.040;12.126;2022-10-19T12:31:07;7.97;;;4.13;;
58874;SDS011;44652;49.040;12.126;2022-10-19T12:36:13;7.03;;;3.90;;
58874;SDS011;44652;49.040;12.126;2022-10-19T12:38:55;6.07;;;4.25;;
58874;SDS011;44652;49.040;12.126;2022-10-19T12:41:38;6.45;;;4.57;;
58874;SDS011;44652;49.040;12.126;2022-10-19T12:44:55;8.13;;;4.65;;
58874;SDS011;44652;49.040;12.126;2022-10-19T12:46:57;6.45;;;3.97;;
58874;SDS011;44652;49.040;12.126;2022-10-19T12:51:59;5.95;;;4.30;;
58874;SDS011;44652;49.040;12.126;2022-10-19T12:54:27;7.53;;;3.53;;
58874;SDS011;44652;49.040;12.126;2022-10-19T12:56:54;8.85;;;4.35;;
58874;SDS011;44652;49.040;12.126;2022-10-19T12:59:22;6.78;;;4.32;;
58874;SDS011;44652;49.040;12.126;2022-10-19T13:04:20;5.97;;;4.20;;
58874;SDS011;44652;49.040;12.126;2022-10-19T13:06:57;7.57;;;4.15;;
58874;SDS011;44652;49.040;12.126;2022-10-19T13:22:41;5.97;;;3.95;;
58874;SDS011;44652;49.040;12.126;2022-10-19T13:25:18;6.15;;;3.80;;
58874;SDS011;44652;49.040;12.126;2022-10-19T13:27:47;7.93;;;4.57;;
58874;SDS011;44652;49.040;12.126;2022-10-19T13:32:58;5.35;;;3.80;;
58874;SDS011;44652;49.040;12.126;2022-10-19T13:35:28;6.68;;;3.95;;
58874;SDS011;44652;49.040;12.126;2022-10-19T13:40:39;8.25;;;4.18;;
58874;SDS011;44652;49.040;12.126;2022-10-19T13:43:15;5.68;;;3.90;;
58874;SDS011;44652;49.040;12.126;2022-10-19T13:45:47;5.85;;;3.88;;
58874;SDS011;44652;49.040;12.126;2022-10-19T13:48:22;6.68;;;3.95;;
58874;SDS011;44652;49.040;12.126;2022-10-19T13:51:07;5.60;;;4.18;;
58874;SDS011;44652;49.040;12.126;2022-10-19T13:53:49;7.40;;;5.07;;
58874;SDS011;44652;49.040;12.126;2022-10-19T13:56:29;8.52;;;5.07;;
58874;SDS011;44652;49.040;12.126;2022-10-19T14:01:31;7.03;;;4.28;;
58874;SDS011;44652;49.040;12.126;2022-10-19T14:07:48;8.38;;;3.50;;
58874;SDS011;44652;49.040;12.126;2022-10-19T14:12:13;5.72;;;4.15;;
58874;SDS011;44652;49.040;12.126;2022-10-19T14:14:42;7.47;;;4.30;;
58874;SDS011;44652;49.040;12.126;2022-10-19T14:17:13;6.15;;;4.20;;
58874;SDS011;44652;49.040;12.126;2022-10-19T14:19:41;6.28;;;3.90;;
58874;SDS011;44652;49.040;12.126;2022-10-19T14:22:23;5.55;;;4.32;;
58874;SDS011;44652;49.040;12.126;2022-10-19T14:24:50;9.05;;;4.57;;
58874;SDS011;44652;49.040;12.126;2022-10-19T14:27:22;8.80;;;6.45;;
58874;SDS011;44652;49.040;12.126;2022-10-19T14:29:51;7.10;;;4.47;;
58874;SDS011;44652;49.040;12.126;2022-10-19T14:32:20;8.05;;;4.47;;
58874;SDS011;44652;49.040;12.126;2022-10-19T14:34:47;8.98;;;4.35;;
58874;SDS011;44652;49.040;12.126;2022-10-19T14:37:16;7.88;;;4.15;;
58874;SDS011;44652;49.040;12.126;2022-10-19T14:39:55;6.28;;;4.00;;
58874;SDS011;44652;49.040;12.126;2022-10-19T14:42:23;5.60;;;4.10;;
58874;SDS011;44652;49.040;12.126;2022-10-19T14:44:49;6.40;;;4.47;;
58874;SDS011;44652;49.040;12.126;2022-10-19T14:47:20;6.93;;;4.32;;
58874;SDS011;44652;49.040;12.126;2022-10-19T14:49:47;7.28;;;4.78;;
58874;SDS011;44652;49.040;12.126;2022-10-19T14:52:48;7.80;;;3.97;;
58874;SDS011;44652;49.040;12.126;2022-10-19T14:55:08;6.43;;;3.97;;
58874;SDS011;44652;49.040;12.126;2022-10-19T14:57:40;5.68;;;3.83;;
58874;SDS011;44652;49.040;12.126;2022-10-19T15:00:19;6.10;;;3.45;;
58874;SDS011;44652;49.040;12.126;2022-10-19T15:05:19;6.10;;;4.20;;
58874;SDS011;44652;49.040;12.126;2022-10-19T15:07:46;7.43;;;3.80;;
58874;SDS011;44652;49.040;12.126;2022-10-19T15:12:48;6.43;;;3.70;;
58874;SDS011;44652;49.040;12.126;2022-10-19T15:17:52;8.77;;;3.50;;
58874;SDS011;44652;49.040;12.126;2022-10-19T15:20:22;5.70;;;3.63;;
58874;SDS011;44652;49.040;12.126;2022-10-19T15:22:48;5.57;;;3.85;;
58874;SDS011;44652;49.040;12.126;2022-10-19T15:25:26;5.15;;;3.42;;
58874;SDS011;44652;49.040;12.126;2022-10-19T15:27:53;10.50;;;4.38;;
58874;SDS011;44652;49.040;12.126;2022-10-19T15:30:25;6.68;;;4.25;;
58874;SDS011;44652;49.040;12.126;2022-10-19T15:35:31;9.13;;;3.88;;
58874;SDS011;44652;49.040;12.126;2022-10-19T15:38:02;7.40;;;3.72;;
58874;SDS011;44652;49.040;12.126;2022-10-19T15:40:31;7.63;;;3.72;;
58874;SDS011;44652;49.040;12.126;2022-10-19T15:42:58;6.05;;;4.35;;
58874;SDS011;44652;49.040;12.126;2022-10-19T15:45:35;8.35;;;4.82;;
58874;SDS011;44652;49.040;12.126;2022-10-19T15:50:47;6.10;;;3.80;;
58874;SDS011;44652;49.040;12.126;2022-10-19T15:53:14;5.87;;;3.87;;
58874;SDS011;44652;49.040;12.126;2022-10-19T15:55:41;9.98;;;4.43;;
58874;SDS011;44652;49.040;12.126;2022-10-19T15:58:10;5.15;;;3.50;;
58874;SDS011;44652;49.040;12.126;2022-10-19T16:00:37;6.47;;;3.70;;
58874;SDS011;44652;49.040;12.126;2022-10-19T16:03:04;7.13;;;3.90;;
58874;SDS011;44652;49.040;12.126;2022-10-19T16:05:30;8.10;;;4.30;;
58874;SDS011;44652;49.040;12.126;2022-10-19T16:07:57;6.53;;;4.35;;
58874;SDS011;44652;49.040;12.126;2022-10-19T16:10:26;6.07;;;4.22;;
58874;SDS011;44652;49.040;12.126;2022-10-19T16:13:10;9.38;;;5.13;;
58874;SDS011;44652;49.040;12.126;2022-10-19T16:15:36;8.93;;;4.30;;
58874;SDS011;44652;49.040;12.126;2022-10-19T16:18:03;8.95;;;4.70;;
58874;SDS011;44652;49.040;12.126;2022-10-19T16:20:31;6.80;;;4.68;;
58874;SDS011;44652;49.040;12.126;2022-10-19T16:22:58;8.45;;;5.70;;
58874;SDS011;44652;49.040;12.126;2022-10-19T16:25:24;6.97;;;5.07;;
58874;SDS011;44652;49.040;12.126;2022-10-19T16:27:51;7.72;;;4.72;;
58874;SDS011;44652;49.040;12.126;2022-10-19T16:30:17;8.85;;;5.70;;
58874;SDS011;44652;49.040;12.126;2022-10-19T16:32:46;11.48;;;7.28;;
58874;SDS011;44652;49.040;12.126;2022-10-19T16:35:12;9.73;;;6.47;;
58874;SDS011;44652;49.040;12.126;2022-10-19T16:37:39;9.35;;;6.30;;
58874;SDS011;44652;49.040;12.126;2022-10-19T16:40:06;10.23;;;6.45;;
58874;SDS011;44652;49.040;12.126;2022-10-19T16:42:32;10.98;;;7.53;;
58874;SDS011;44652;49.040;12.126;2022-10-19T16:45:00;9.57;;;6.10;;
58874;SDS011;44652;49.040;12.126;2022-10-19T16:47:27;9.70;;;7.00;;
58874;SDS011;44652;49.040;12.126;2022-10-19T16:49:57;9.93;;;7.22;;
58874;SDS011;44652;49.040;12.126;2022-10-19T16:52:25;12.45;;;8.63;;
58874;SDS011;44652;49.040;12.126;2022-10-19T16:54:52;10.93;;;7.95;;
58874;SDS011;44652;49.040;12.126;2022-10-19T16:57:19;9.63;;;7.13;;